Latest Weather Observations for Inner Beacon

IDQ60801

Issued at 4:35 pm EST Friday 25 July 2014 (issued every 30 minutes, with the page automatically refreshed every 10 minutes)

About weather observations | Map of weather stations | Latest weather observations for QLD | Other Formats
Station Details ID: 040926 Name: INNER RECIPROCAL MARKER Lat: -27.26 Lon: 153.24 Height: 20.0 m
Data from the previous 72 hours. | See also: Recent months for locations in Queensland
Date/Time
EST
Temp
°C
App
Temp
°C
Dew
Point
Rel
Hum
%
Delta-T
°C
Wind Press
QNH
hPa
Press
MSL
hPa
Rain
since 9 am
mm
Dir
 
Spd
km/h
Gust
km/h
Spd
kts
Gust
kts
25/04:30pm - - - - - ENE 9 13 5 7 - - -
25/04:00pm - - - - - ENE 9 9 5 5 - - -
25/03:30pm - - - - - ENE 7 9 4 5 - - -
25/03:00pm - - - - - E 7 9 4 5 - - -
25/02:30pm - - - - - ENE 4 6 2 3 - - -
25/02:00pm - - - - - E 4 4 2 2 - - -
25/01:30pm - - - - - E 2 4 1 2 - - -
25/01:00pm - - - - - CALM 0 0 0 0 - - -
25/12:30pm - - - - - CALM 0 0 0 0 - - -
25/12:00pm - - - - - CALM 0 0 0 0 - - -
25/11:30am - - - - - CALM 0 0 0 0 - - -
25/11:00am - - - - - CALM 0 2 0 1 - - -
25/10:30am - - - - - SSE 2 4 1 2 - - -
25/10:00am - - - - - S 2 4 1 2 - - -
25/09:30am - - - - - SSW 2 4 1 2 - - -
25/09:00am - - - - - SSW 2 4 1 2 - - -
25/08:30am - - - - - SW 7 9 4 5 - - -
25/08:00am - - - - - SW 9 11 5 6 - - -
25/07:30am - - - - - SW 13 15 7 8 - - -
25/07:00am - - - - - SW 13 15 7 8 - - -
25/06:30am - - - - - SSW 13 15 7 8 - - -
25/06:00am - - - - - SSW 11 13 6 7 - - -
25/05:30am - - - - - SSW 7 7 4 4 - - -
25/05:00am - - - - - SSW 9 11 5 6 - - -
25/04:30am - - - - - SSW 11 13 6 7 - - -
25/04:00am - - - - - SSW 11 15 6 8 - - -
25/03:30am - - - - - SSW 9 11 5 6 - - -
25/03:00am - - - - - SW 9 11 5 6 - - -
25/02:30am - - - - - SW 7 9 4 5 - - -
25/02:00am - - - - - SW 9 11 5 6 - - -
25/01:30am - - - - - WSW 11 13 6 7 - - -
25/01:00am - - - - - WSW 11 13 6 7 - - -
25/12:30am - - - - - WSW 9 9 5 5 - - -
25/12:00am - - - - - WSW 4 6 2 3 - - -
 
Date/Time
EST
Temp
°C
App
Temp
°C
Dew
Point
Rel
Hum
%
Delta-T
°C
Wind Press
QNH
hPa
Press
MSL
hPa
Rain
since 9 am
mm
Dir
 
Spd
km/h
Gust
km/h
Spd
kts
Gust
kts
24/11:30pm - - - - - S 4 4 2 2 - - -
24/11:00pm - - - - - S 6 7 3 4 - - -
24/10:30pm - - - - - S 7 7 4 4 - - -
24/10:00pm - - - - - SSW 6 7 3 4 - - -
24/09:30pm - - - - - WSW 4 4 2 2 - - -
24/09:00pm - - - - - WNW 2 4 1 2 - - -
24/08:30pm - - - - - WNW 2 4 1 2 - - -
24/08:00pm - - - - - N 4 4 2 2 - - -
24/07:30pm - - - - - N 6 6 3 3 - - -
24/07:00pm - - - - - NE 6 6 3 3 - - -
24/06:30pm - - - - - NE 9 9 5 5 - - -
24/06:00pm - - - - - NE 11 11 6 6 - - -
24/05:30pm - - - - - ENE 11 13 6 7 - - -
24/05:00pm - - - - - ENE 11 13 6 7 - - -
24/04:30pm - - - - - E 13 15 7 8 - - -
24/04:00pm - - - - - E 15 17 8 9 - - -
24/03:30pm - - - - - E 15 15 8 8 - - -
24/03:00pm - - - - - E 11 13 6 7 - - -
24/02:30pm - - - - - SE 13 13 7 7 - - -
24/02:00pm - - - - - SSE 11 13 6 7 - - -
24/01:30pm - - - - - SSE 11 13 6 7 - - -
24/01:00pm - - - - - SSE 13 15 7 8 - - -
24/12:30pm - - - - - S 11 13 6 7 - - -
24/12:00pm - - - - - S 15 17 8 9 - - -
24/11:30am - - - - - SSE 15 17 8 9 - - -
24/11:00am - - - - - S 11 15 6 8 - - -
24/10:30am - - - - - SSW 15 17 8 9 - - -
24/10:00am - - - - - SSW 11 13 6 7 - - -
24/09:30am - - - - - SSW 9 9 5 5 - - -
24/09:00am - - - - - SSW 11 13 6 7 - - -
24/08:30am - - - - - SSW 15 17 8 9 - - -
24/08:00am - - - - - SSW 13 17 7 9 - - -
24/07:30am - - - - - SSW 17 19 9 10 - - -
24/07:00am - - - - - SSW 22 24 12 13 - - -
24/06:30am - - - - - SSW 17 19 9 10 - - -
24/06:00am - - - - - SSW 19 20 10 11 - - -
24/05:30am - - - - - SSW 17 20 9 11 - - -
24/05:00am - - - - - SSW 20 24 11 13 - - -
24/04:30am - - - - - SSW 17 19 9 10 - - -
24/04:00am - - - - - SSW 15 17 8 9 - - -
24/03:30am - - - - - SSW 15 17 8 9 - - -
24/03:00am - - - - - SW 15 17 8 9 - - -
24/02:30am - - - - - SW 15 17 8 9 - - -
24/02:00am - - - - - SW 13 17 7 9 - - -
24/01:30am - - - - - S 17 19 9 10 - - -
24/01:00am - - - - - S 19 22 10 12 - - -
24/12:30am - - - - - S 19 22 10 12 - - -
24/12:00am - - - - - SSW 15 17 8 9 - - -
 
Date/Time
EST
Temp
°C
App
Temp
°C
Dew
Point
Rel
Hum
%
Delta-T
°C
Wind Press
QNH
hPa
Press
MSL
hPa
Rain
since 9 am
mm
Dir
 
Spd
km/h
Gust
km/h
Spd
kts
Gust
kts
23/11:30pm - - - - - SSW 11 13 6 7 - - -
23/11:00pm - - - - - SW 11 15 6 8 - - -
23/10:30pm - - - - - SSE 11 13 6 7 - - -
23/10:00pm - - - - - SE 11 13 6 7 - - -
23/09:30pm - - - - - SE 13 15 7 8 - - -
23/09:00pm - - - - - SE 19 22 10 12 - - -
23/08:30pm - - - - - SE 19 22 10 12 - - -
23/08:00pm - - - - - SE 20 22 11 12 - - -
23/07:30pm - - - - - SE 20 22 11 12 - - -
23/07:00pm - - - - - SE 17 20 9 11 - - -
23/06:30pm - - - - - SE 15 19 8 10 - - -
23/06:00pm - - - - - SE 15 17 8 9 - - -
23/05:30pm - - - - - ESE 17 19 9 10 - - -
23/05:00pm - - - - - ESE 13 17 7 9 - - -
23/04:30pm - - - - - ESE 17 19 9 10 - - -
23/04:00pm - - - - - ESE 15 15 8 8 - - -
23/03:30pm - - - - - SE 11 11 6 6 - - -
23/03:00pm - - - - - SE 11 13 6 7 - - -
23/02:30pm - - - - - SE 11 13 6 7 - - -
23/02:00pm - - - - - SSE 11 13 6 7 - - -
23/01:30pm - - - - - SSE 9 13 5 7 - - -
23/01:00pm - - - - - SSE 11 13 6 7 - - -
23/12:30pm - - - - - SSE 15 17 8 9 - - -
23/12:00pm - - - - - SSW 11 15 6 8 - - -
23/11:30am - - - - - S 11 13 6 7 - - -
23/11:00am - - - - - SSW 13 15 7 8 - - -
23/10:30am - - - - - SSW 17 19 9 10 - - -
23/10:00am - - - - - SSW 20 22 11 12 - - -
23/09:30am - - - - - SSW 22 26 12 14 - - -
23/09:00am - - - - - SSW 24 26 13 14 - - -
23/08:30am - - - - - SW 19 22 10 12 - - -
23/08:00am - - - - - SSW 22 26 12 14 - - -
23/07:30am - - - - - SSW 22 26 12 14 - - -
23/07:00am - - - - - SW 20 24 11 13 - - -
23/06:30am - - - - - SSW 24 28 13 15 - - -
23/06:00am - - - - - SSW 24 28 13 15 - - -
23/05:30am - - - - - SSW 26 32 14 17 - - -
23/05:00am - - - - - SSW 24 28 13 15 - - -
23/04:30am - - - - - SSW 24 28 13 15 - - -
23/04:00am - - - - - SSW 20 22 11 12 - - -
23/03:30am - - - - - SW 20 22 11 12 - - -
23/03:00am - - - - - SSW 22 26 12 14 - - -
23/02:30am - - - - - SSW 22 26 12 14 - - -
23/02:00am - - - - - SW 17 20 9 11 - - -
23/01:30am - - - - - SSW 17 20 9 11 - - -
23/01:00am - - - - - SW 17 20 9 11 - - -
23/12:30am - - - - - S 15 17 8 9 - - -
23/12:00am - - - - - S 19 22 10 12 - - -
 
Date/Time
EST
Temp
°C
App
Temp
°C
Dew
Point
Rel
Hum
%
Delta-T
°C
Wind Press
QNH
hPa
Press
MSL
hPa
Rain
since 9 am
mm
Dir
 
Spd
km/h
Gust
km/h
Spd
kts
Gust
kts
22/11:30pm - - - - - S 20 24 11 13 - - -
22/11:00pm - - - - - S 19 22 10 12 - - -
22/10:30pm - - - - - S 9 11 5 6 - - -
22/10:00pm - - - - - SSW 9 11 5 6 - - -
22/09:30pm - - - - - S 15 19 8 10 - - -
22/09:00pm - - - - - S 15 19 8 10 - - -
22/08:30pm - - - - - S 11 15 6 8 - - -
22/08:00pm - - - - - S 11 13 6 7 - - -
22/07:30pm - - - - - SSE 11 13 6 7 - - -
22/07:00pm - - - - - SSE 19 22 10 12 - - -
22/06:30pm - - - - - SSE 22 28 12 15 - - -
22/06:00pm - - - - - S 28 33 15 18 - - -
22/05:30pm - - - - - SE 24 37 13 20 - - -
22/05:00pm - - - - - S 17 20 9 11 - - -

Other Formats:

Comma delimited format used in spreadsheet applications
http://www.bom.gov.au/fwo/IDQ60801/IDQ60801.94590.axf

JavaScript Object Notation format (JSON) in row-major order
http://www.bom.gov.au/fwo/IDQ60801/IDQ60801.94590.json